Time;durP1;ratioP1;P1;durP2;ratioP2;P2;SDS_P1;SDS_P2;PMS_P1;PMS_P2;Temp;Humidity;BMP_temperature;BMP_pressure;BME280_temperature;BME280_humidity;BME280_pressure;Samples;Min_cycle;Max_cycle;Signal;HPM_P1;HPM_P2
2022/07/23 00:01:29;;;;;;;6.88;2.80;;;;;;;15.67;91.79;100452.56;5140558;27;20038;-88
2022/07/23 00:03:55;;;;;;;6.80;3.50;;;;;;;15.70;92.01;100449.09;5142385;27;20106;-86
2022/07/23 00:06:21;;;;;;;6.88;3.38;;;;;;;15.71;91.15;100445.19;5140805;27;20100;-88
2022/07/23 00:08:46;;;;;;;6.72;3.08;;;;;;;15.51;91.39;100441.59;5139825;27;20427;-88
2022/07/23 00:11:12;;;;;;;5.45;2.90;;;;;;;15.46;92.55;100452.88;5139997;27;20031;-88
2022/07/23 00:13:37;;;;;;;;;;;;;;;15.54;93.20;100442.84;5141483;27;20458;-87
2022/07/23 00:16:03;;;;;;;6.55;2.80;;;;;;;15.63;93.40;100448.94;5141282;27;19950;-88
2022/07/23 00:18:29;;;;;;;;;;;;;;;15.71;93.57;100453.41;5140123;27;20039;-88
2022/07/23 00:20:55;;;;;;;9.80;3.27;;;;;;;15.67;93.35;100449.81;5141924;27;19938;-88
2022/07/23 00:23:20;;;;;;;6.18;3.00;;;;;;;15.66;93.47;100441.94;5141484;27;20620;-87
2022/07/23 00:25:45;;;;;;;;;;;;;;;15.67;92.93;100438.84;5140601;27;20172;-87
2022/07/23 00:28:11;;;;;;;9.27;4.40;;;;;;;15.57;92.50;100447.59;5141789;27;20338;-87
2022/07/23 00:30:37;;;;;;;6.55;3.47;;;;;;;15.61;93.55;100441.06;5141607;27;20680;-87
2022/07/23 00:33:04;;;;;;;;;;;;;;;15.52;93.07;100445.94;5141657;27;20055;-87
2022/07/23 00:35:31;;;;;;;8.95;4.03;;;;;;;15.54;93.14;100445.56;5138785;27;19942;-88
2022/07/23 00:37:58;;;;;;;8.52;4.57;;;;;;;15.69;92.55;100439.25;5138174;27;20550;-87
2022/07/23 00:40:23;;;;;;;;;;;;;;;15.70;92.59;100440.84;5138932;27;20076;-88
2022/07/23 00:42:49;;;;;;;8.25;3.72;;;;;;;15.76;92.41;100442.13;5137925;27;19915;-88
2022/07/23 00:45:14;;;;;;;;;;;;;;;15.61;93.39;100437.50;5139772;27;20027;-88
2022/07/23 00:47:39;;;;;;;9.38;4.63;;;;;;;15.44;93.67;100430.47;5138630;27;20002;-88
2022/07/23 00:50:06;;;;;;;;;;;;;;;15.42;94.25;100434.72;5136647;27;20041;-87
2022/07/23 00:52:33;;;;;;;9.55;4.20;;;;;;;15.42;94.80;100429.25;5139554;27;19922;-87
2022/07/23 00:54:59;;;;;;;10.40;4.85;;;;;;;15.45;94.16;100428.50;5137865;27;20027;-87
2022/07/23 00:57:24;;;;;;;10.80;4.82;;;;;;;15.42;94.28;100426.50;5136907;27;20412;-87
2022/07/23 00:59:49;;;;;;;;;;;;;;;15.42;94.73;100421.81;5137253;27;20027;-86
2022/07/23 01:02:15;;;;;;;10.77;5.22;;;;;;;15.43;94.26;100428.09;5137243;27;19911;-88
2022/07/23 01:04:40;;;;;;;;;;;;;;;15.40;94.51;100428.81;5136636;27;20076;-87
2022/07/23 01:07:06;;;;;;;14.23;5.15;;;;;;;15.50;94.72;100431.78;5135138;27;19954;-89
2022/07/23 01:09:32;;;;;;;14.82;6.20;;;;;;;15.43;94.46;100428.09;5136623;27;20023;-87
2022/07/23 01:11:58;;;;;;;11.60;5.15;;;;;;;15.50;94.47;100433.75;5135963;27;20470;-88
2022/07/23 01:14:24;;;;;;;14.90;5.50;;;;;;;15.47;94.66;100442.69;5136653;27;20027;-87
2022/07/23 01:16:49;;;;;;;13.63;6.20;;;;;;;15.49;94.68;100438.44;5137024;27;20035;-88
2022/07/23 01:22:21;;;;;;;11.35;5.90;;;;;;;15.58;94.14;100438.22;5108363;27;19914;-89
2022/07/23 01:24:47;;;;;;;12.40;6.13;;;;;;;15.51;94.41;100433.38;5136578;27;20031;-88
2022/07/23 01:27:17;;;;;;;14.75;6.93;;;;;;;15.40;94.46;100431.53;5135529;27;20099;-89
2022/07/23 01:29:52;;;;;;;13.48;5.82;;;;;;;15.28;95.43;100433.28;5136301;27;20110;-89
2022/07/23 01:32:31;;;;;;;13.02;6.45;;;;;;;15.33;95.96;100435.75;5134861;27;20389;-88
2022/07/23 01:34:56;;;;;;;12.55;6.03;;;;;;;15.56;95.87;100435.81;5137610;27;20083;-86
2022/07/23 01:37:22;;;;;;;14.40;6.15;;;;;;;15.61;94.82;100438.31;5137821;27;20061;-89
2022/07/23 01:39:47;;;;;;;;;;;;;;;15.54;94.15;100440.88;5138166;27;20122;-86
2022/07/23 01:42:16;;;;;;;12.48;5.75;;;;;;;15.52;93.49;100434.97;5137060;27;20414;-88
2022/07/23 01:44:41;;;;;;;17.17;7.38;;;;;;;15.58;94.86;100432.72;5137276;27;20023;-88
2022/07/23 01:47:06;;;;;;;;;;;;;;;15.61;94.55;100434.75;5136972;27;20099;-87
2022/07/23 01:49:32;;;;;;;10.70;5.30;;;;;;;15.48;94.74;100422.31;5135744;27;20013;-88
2022/07/23 01:52:00;;;;;;;;;;;;;;;15.51;95.10;100427.88;5137489;27;20318;-87
2022/07/23 01:54:38;;;;;;;13.45;6.15;;;;;;;15.58;94.75;100427.22;5135513;27;19959;-88
2022/07/23 01:57:06;;;;;;;11.80;6.28;;;;;;;15.61;93.47;100418.28;5136130;27;20027;-88
2022/07/23 01:59:33;;;;;;;14.65;7.07;;;;;;;15.60;93.86;100423.00;5135891;27;20382;-89
2022/07/23 02:01:59;;;;;;;10.75;5.85;;;;;;;15.57;94.65;100420.16;5134327;27;20084;-88
2022/07/23 02:04:25;;;;;;;14.77;6.82;;;;;;;15.57;93.28;100428.38;5125672;22;20505;-88
2022/07/23 02:06:53;;;;;;;14.35;6.45;;;;;;;15.53;93.02;100430.25;5052723;28;20035;-88
2022/07/23 02:09:19;;;;;;;14.43;6.28;;;;;;;15.30;94.56;100425.50;5053104;28;20035;-88
2022/07/23 02:11:44;;;;;;;15.70;6.07;;;;;;;15.24;95.03;100424.16;5053976;28;20033;-87
2022/07/23 02:14:10;;;;;;;;;;;;;;;15.20;95.08;100420.56;5068839;28;20033;-87
2022/07/23 02:16:35;;;;;;;12.35;6.65;;;;;;;15.52;95.15;100421.25;5035258;28;20382;-87
2022/07/23 02:19:00;;;;;;;;;;;;;;;15.51;95.27;100421.59;5052922;28;20037;-86
2022/07/23 02:21:26;;;;;;;11.68;5.53;;;;;;;15.39;94.81;100416.25;5053607;28;20284;-87
2022/07/23 02:23:51;;;;;;;;;;;;;;;15.31;95.34;100416.09;5053954;28;20044;-87
2022/07/23 02:26:16;;;;;;;11.13;5.32;;;;;;;15.22;95.63;100417.44;5051906;28;19948;-87
2022/07/23 02:28:42;;;;;;;;;;;;;;;15.31;96.03;100423.53;5053779;28;20029;-88
2022/07/23 02:31:07;;;;;;;14.25;5.55;;;;;;;15.59;94.25;100420.59;5053276;28;20007;-86
2022/07/23 02:33:34;;;;;;;;;;;;;;;15.58;94.42;100419.00;5053208;28;20108;-86
2022/07/23 02:36:01;;;;;;;11.07;5.68;;;;;;;15.63;94.44;100416.00;5053583;28;19913;-87
2022/07/23 02:38:26;;;;;;;10.50;5.78;;;;;;;15.69;94.11;100416.50;5052014;28;20040;-87
2022/07/23 02:40:51;;;;;;;;;;;;;;;15.47;93.65;100421.53;5052717;28;20048;-87
2022/07/23 02:43:18;;;;;;;11.80;5.90;;;;;;;15.58;94.13;100424.47;5053475;28;19919;-88
2022/07/23 02:45:43;;;;;;;12.68;5.32;;;;;;;15.57;94.19;100428.38;5052925;28;20452;-87
2022/07/23 02:48:08;;;;;;;;;;;;;;;15.44;94.41;100419.47;5053132;28;20091;-88
2022/07/23 02:50:34;;;;;;;10.30;5.40;;;;;;;15.51;94.43;100418.84;5055456;28;19920;-87
2022/07/23 02:52:59;;;;;;;;;;;;;;;15.57;93.99;100417.41;5057842;28;20032;-88
2022/07/23 02:55:24;;;;;;;11.20;5.07;;;;;;;15.54;94.11;100418.94;5056485;28;20372;-87
2022/07/23 02:57:50;;;;;;;;;;;;;;;15.53;94.13;100422.03;5073142;28;20463;-84
2022/07/23 03:00:15;;;;;;;12.30;5.10;;;;;;;15.54;93.95;100423.63;5057011;28;20018;-84
2022/07/23 03:02:41;;;;;;;9.82;5.40;;;;;;;15.55;93.57;100425.22;5056694;28;20284;-86
2022/07/23 03:05:06;;;;;;;;;;;;;;;15.51;94.09;100418.84;5057196;28;20057;-86
2022/07/23 03:07:33;;;;;;;9.48;4.72;;;;;;;15.56;94.31;100422.09;5055602;28;19921;-86
2022/07/23 03:09:59;;;;;;;8.38;4.88;;;;;;;15.50;93.49;100418.06;5055671;28;20079;-87
2022/07/23 03:12:24;;;;;;;9.70;5.30;;;;;;;15.51;93.98;100419.66;5055085;28;20060;-87
2022/07/23 03:14:49;;;;;;;;;;;;;;;15.43;93.96;100422.59;5057158;28;20082;-85
2022/07/23 03:17:15;;;;;;;11.18;5.15;;;;;;;15.47;94.28;100412.50;5056721;28;19916;-85
2022/07/23 03:19:40;;;;;;;;;;;;;;;15.40;94.14;100401.38;5055782;28;20095;-85
2022/07/23 03:22:07;;;;;;;9.68;5.15;;;;;;;15.34;94.08;100411.84;5055213;28;19912;-85
2022/07/23 03:27:17;;;;;;;14.63;5.65;;;;;;;15.29;94.58;100404.69;5056461;28;20120;-86
2022/07/23 03:29:43;;;;;;;9.77;4.55;;;;;;;15.27;94.67;100404.22;5055935;28;20036;-85
2022/07/23 03:32:08;;;;;;;;;;;;;;;15.27;94.44;100401.50;5056610;28;20534;-85
2022/07/23 03:34:33;;;;;;;11.88;5.35;;;;;;;15.24;94.15;100412.41;5055289;28;19919;-85
2022/07/23 03:36:58;;;;;;;;;;;;;;;15.20;94.59;100415.06;5056223;28;20067;-85
2022/07/23 03:39:24;;;;;;;15.23;5.30;;;;;;;15.18;94.71;100414.63;5055361;28;20015;-85
2022/07/23 03:41:49;;;;;;;;;;;;;;;15.11;94.15;100406.22;5056913;28;20297;-86
2022/07/23 03:44:14;;;;;;;11.07;4.83;;;;;;;15.09;93.29;100411.28;5055056;28;19908;-86
2022/07/23 03:46:39;;;;;;;;;;;;;;;15.10;93.90;100415.59;5057103;28;20268;-86
2022/07/23 03:49:05;;;;;;;12.27;4.90;;;;;;;15.07;93.68;100413.59;5054781;28;19908;-87
2022/07/23 03:51:30;;;;;;;12.18;5.95;;;;;;;15.12;93.66;100418.03;5056253;28;20263;-87
2022/07/23 03:53:56;;;;;;;13.02;5.75;;;;;;;15.13;93.60;100414.91;5054401;28;20033;-86
2022/07/23 03:56:21;;;;;;;;;;;;;;;15.11;93.99;100419.94;5056499;28;20110;-86
2022/07/23 03:58:47;;;;;;;9.90;5.70;;;;;;;15.07;93.99;100419.06;5055971;28;20232;-86
2022/07/23 04:01:12;;;;;;;;;;;;;;;15.10;93.71;100423.03;5055727;28;20128;-87
2022/07/23 04:03:37;;;;;;;10.02;5.28;;;;;;;15.07;93.11;100424.56;5055852;28;19913;-87
2022/07/23 04:06:02;;;;;;;;;;;;;;;15.02;93.34;100427.59;5056684;28;20087;-87
2022/07/23 04:08:28;;;;;;;13.43;5.77;;;;;;;15.05;92.96;100432.34;5055989;28;19920;-88
2022/07/23 04:10:55;;;;;;;16.35;6.55;;;;;;;15.04;93.31;100434.28;5056321;28;20255;-86
2022/07/23 04:13:20;;;;;;;14.43;6.15;;;;;;;15.07;93.67;100434.72;5056625;28;20082;-86
2022/07/23 04:15:46;;;;;;;11.60;6.13;;;;;;;15.07;93.26;100430.03;5056108;28;20029;-87
2022/07/23 04:18:11;;;;;;;;;;;;;;;15.07;93.55;100432.00;5055906;28;20032;-88
2022/07/23 04:20:36;;;;;;;11.63;5.80;;;;;;;15.07;93.25;100432.00;5055664;28;19916;-84
2022/07/23 04:23:01;;;;;;;;;;;;;;;15.05;92.93;100432.34;5056037;28;20518;-84
2022/07/23 04:25:27;;;;;;;12.80;5.97;;;;;;;15.01;92.97;100429.53;5055604;28;19916;-85
2022/07/23 04:27:52;;;;;;;11.55;5.50;;;;;;;14.91;93.23;100440.25;5055920;28;20264;-86
2022/07/23 04:30:17;;;;;;;;;;;;;;;15.00;93.50;100435.38;5057021;28;20033;-86
2022/07/23 04:32:43;;;;;;;12.67;6.13;;;;;;;15.07;93.32;100437.47;5056567;28;19909;-85
2022/07/23 04:35:08;;;;;;;;;;;;;;;15.09;93.03;100444.19;5055000;28;20370;-89
2022/07/23 04:37:35;;;;;;;10.18;4.38;;;;;;;15.01;92.53;100439.72;5055738;28;19923;-88
2022/07/23 04:40:00;;;;;;;10.73;5.72;;;;;;;14.84;93.54;100442.81;5055540;28;20051;-88
2022/07/23 04:42:26;;;;;;;14.13;6.18;;;;;;;14.72;94.14;100455.47;5054624;28;20147;-89
2022/07/23 04:44:51;;;;;;;;;;;;;;;14.71;94.59;100451.13;5054740;28;20044;-88
2022/07/23 04:47:16;;;;;;;10.77;4.93;;;;;;;14.71;94.96;100464.03;5055147;28;19919;-88
2022/07/23 04:49:42;;;;;;;12.77;6.03;;;;;;;14.67;95.48;100463.97;5054330;28;20285;-89
2022/07/23 04:52:08;;;;;;;;;;;;;;;14.66;95.50;100456.09;5056107;28;20156;-86
2022/07/23 04:54:34;;;;;;;11.00;4.97;;;;;;;14.78;95.37;100457.94;5055321;28;20419;-86
2022/07/23 04:57:00;;;;;;;;;;;;;;;14.78;95.25;100446.97;5055771;28;20063;-87
2022/07/23 04:59:27;;;;;;;12.13;5.50;;;;;;;14.74;94.87;100464.13;5055239;28;19908;-87
2022/07/23 05:01:52;;;;;;;10.52;5.03;;;;;;;14.73;95.58;100457.06;5053483;28;20052;-87
2022/07/23 05:04:17;;;;;;;;;;;;;;;14.80;95.58;100469.38;5054611;28;20053;-86
2022/07/23 05:06:43;;;;;;;10.13;5.23;;;;;;;15.01;94.65;100458.91;5055115;28;20272;-85
2022/07/23 05:09:08;;;;;;;;;;;;;;;15.02;94.85;100472.25;5055610;28;20032;-87
2022/07/23 05:11:34;;;;;;;10.83;6.00;;;;;;;15.27;92.10;100466.53;5054693;28;20375;-87
2022/07/23 05:14:00;;;;;;;11.95;5.90;;;;;;;15.23;92.98;100474.69;5053658;28;20033;-86
2022/07/23 05:16:25;;;;;;;;;;;;;;;15.12;93.64;100468.19;5055734;28;20036;-86
2022/07/23 05:18:50;;;;;;;10.00;5.17;;;;;;;15.27;93.13;100475.56;5054551;28;19995;-87
2022/07/23 05:21:15;;;;;;;;;;;;;;;15.32;93.40;100471.75;5055180;28;20256;-81
2022/07/23 05:23:41;;;;;;;12.40;5.40;;;;;;;15.54;91.89;100473.03;5055045;28;19909;-87
2022/07/23 05:26:06;;;;;;;;;;;;;;;15.44;92.44;100473.56;5055364;28;20259;-87
2022/07/23 05:28:31;;;;;;;12.00;5.70;;;;;;;15.50;91.82;100472.16;5058442;28;19963;-87
2022/07/23 05:30:56;;;;;;;;;;;;;;;15.49;92.38;100481.53;5056835;28;20355;-88
2022/07/23 05:33:22;;;;;;;13.30;5.13;;;;;;;15.69;91.74;100485.13;5057268;28;19923;-88
2022/07/23 05:35:47;;;;;;;;;;;;;;;15.70;91.29;100490.25;5054869;28;20259;-86
2022/07/23 05:38:12;;;;;;;10.77;5.37;;;;;;;15.52;91.94;100491.81;5054314;28;19908;-87
2022/07/23 05:40:38;;;;;;;;;;;;;;;15.37;92.42;100487.94;5054891;28;20316;-88
2022/07/23 05:43:03;;;;;;;12.77;6.33;;;;;;;15.43;92.47;100493.94;5054209;28;19913;-87
2022/07/23 05:45:28;;;;;;;;;;;;;;;15.61;92.17;100492.41;5053923;28;20286;-88
2022/07/23 05:47:53;;;;;;;15.30;6.73;;;;;;;15.80;91.33;100492.44;5053448;28;19909;-88
2022/07/23 05:50:19;;;;;;;;;;;;;;;15.89;90.84;100492.22;5057273;28;20267;-89
2022/07/23 05:52:44;;;;;;;12.93;6.10;;;;;;;16.09;90.16;100495.75;5054621;28;19967;-90
2022/07/23 05:55:10;;;;;;;;;;;;;;;16.08;90.44;100497.69;5055407;28;20444;-89
2022/07/23 05:57:36;;;;;;;15.15;7.40;;;;;;;16.01;90.40;100502.28;5055295;28;20019;-91
2022/07/23 06:00:03;;;;;;;;;;;;;;;16.02;91.13;100503.88;5057359;28;20040;-86
2022/07/23 06:02:29;;;;;;;14.10;6.50;;;;;;;16.13;90.01;100504.88;5054941;28;19920;-87
2022/07/23 06:04:55;;;;;;;13.02;6.50;;;;;;;16.20;89.94;100507.75;5055072;28;20056;-89
2022/07/23 06:07:20;;;;;;;;;;;;;;;16.13;90.13;100504.88;5058772;28;20034;-89
2022/07/23 06:09:46;;;;;;;14.77;7.03;;;;;;;16.21;89.38;100503.84;5059835;28;19957;-88
2022/07/23 06:12:12;;;;;;;12.15;6.32;;;;;;;16.24;89.46;100506.66;5060351;28;20123;-89
2022/07/23 06:14:37;;;;;;;;;;;;;;;16.31;89.36;100506.00;5057498;28;20155;-88
2022/07/23 06:17:02;;;;;;;12.30;6.90;;;;;;;16.40;89.08;100497.53;5058400;28;19958;-87
2022/07/23 06:19:28;;;;;;;;;;;;;;;16.57;86.74;100504.50;5061583;28;20272;-89
2022/07/23 06:21:53;;;;;;;13.43;6.30;;;;;;;16.66;87.21;100510.56;5062621;28;20411;-88
2022/07/23 06:24:18;;;;;;;;;;;;;;;16.62;87.64;100510.47;5056861;28;20028;-89
2022/07/23 06:26:44;;;;;;;10.67;5.27;;;;;;;16.81;86.90;100518.72;5054906;28;19912;-87
2022/07/23 06:29:10;;;;;;;13.52;6.22;;;;;;;16.93;85.80;100516.94;5052494;28;20040;-87
2022/07/23 06:31:35;;;;;;;;;;;;;;;17.01;84.84;100513.94;5054400;28;20157;-84
2022/07/23 06:34:00;;;;;;;14.57;6.47;;;;;;;17.00;85.42;100514.31;5055719;28;19913;-89
2022/07/23 06:36:27;;;;;;;15.63;7.45;;;;;;;17.46;83.36;100515.00;5054348;28;20045;-88
2022/07/23 06:38:52;;;;;;;12.85;6.82;;;;;;;18.05;80.97;100513.47;5057216;28;20083;-90
2022/07/23 06:41:18;;;;;;;14.38;7.13;;;;;;;18.46;78.93;100510.75;5057005;28;20025;-88
2022/07/23 06:43:43;;;;;;;12.65;6.03;;;;;;;19.01;75.87;100508.16;5056055;28;20543;-89
2022/07/23 06:46:09;;;;;;;11.48;5.80;;;;;;;19.22;74.66;100513.84;5062636;28;20460;-89
2022/07/23 06:48:35;;;;;;;15.35;7.18;;;;;;;18.93;76.74;100521.09;5056285;28;20384;-89
2022/07/23 06:51:01;;;;;;;12.60;6.35;;;;;;;19.20;74.67;100522.50;5054812;28;20029;-91
2022/07/23 06:53:27;;;;;;;12.27;6.20;;;;;;;19.52;73.62;100522.72;5054331;28;20029;-90
2022/07/23 06:55:52;;;;;;;11.68;5.57;;;;;;;19.66;73.49;100524.81;5055397;28;20029;-91
2022/07/23 06:58:19;;;;;;;10.30;5.40;;;;;;;19.67;72.91;100528.38;5060069;28;20029;-91
2022/07/23 07:00:44;;;;;;;11.90;5.72;;;;;;;19.62;72.89;100525.94;5059020;28;20035;-91
2022/07/23 07:03:10;;;;;;;11.70;6.15;;;;;;;19.74;72.89;100531.16;5059573;28;20093;-91
2022/07/23 07:05:35;;;;;;;12.30;5.90;;;;;;;19.73;71.27;100533.13;5059137;28;20049;-91
2022/07/23 07:08:00;;;;;;;10.65;5.75;;;;;;;19.50;72.29;100535.34;5056984;28;20033;-89
2022/07/23 07:10:26;;;;;;;11.10;5.50;;;;;;;19.73;72.88;100532.34;5058152;28;20459;-90
2022/07/23 07:12:51;;;;;;;8.95;4.75;;;;;;;20.36;69.95;100531.81;5068038;28;20764;-90
2022/07/23 07:15:17;;;;;;;12.55;5.50;;;;;;;20.53;69.24;100527.53;5075538;28;20032;-90
2022/07/23 07:17:42;;;;;;;11.70;6.53;;;;;;;20.11;71.36;100534.47;5075628;28;20071;-89
2022/07/23 07:20:08;;;;;;;11.65;5.85;;;;;;;19.82;72.20;100530.81;5074787;28;20040;-88
2022/07/23 07:22:33;;;;;;;10.55;5.80;;;;;;;19.98;71.52;100524.94;5072872;28;20033;-89
2022/07/23 07:24:59;;;;;;;10.50;4.88;;;;;;;19.76;72.30;100531.56;5068395;28;20036;-89
2022/07/23 07:27:24;;;;;;;11.95;5.65;;;;;;;19.74;70.94;100539.44;5068352;28;20032;-89
2022/07/23 07:29:49;;;;;;;11.82;5.20;;;;;;;19.20;72.09;100527.25;5060372;28;20029;-85
2022/07/23 07:32:15;;;;;;;10.65;5.68;;;;;;;19.03;72.64;100536.16;5053375;28;20025;-87
2022/07/23 07:34:40;;;;;;;11.70;5.80;;;;;;;18.67;73.18;100541.38;5052736;28;20036;-86
2022/07/23 07:37:05;;;;;;;11.82;5.40;;;;;;;18.34;73.20;100537.44;5054214;28;20036;-86
2022/07/23 07:39:31;;;;;;;10.93;5.10;;;;;;;18.52;72.00;100542.34;5056475;28;20026;-86
2022/07/23 07:41:59;;;;;;;10.02;5.90;;;;;;;18.77;72.02;100550.91;5056615;28;20028;-85
2022/07/23 07:44:25;;;;;;;10.13;5.78;;;;;;;18.48;71.55;100541.53;5056455;28;20029;-86
2022/07/23 07:46:50;;;;;;;10.75;4.97;;;;;;;18.43;72.92;100553.69;5055252;28;20033;-86
2022/07/23 07:49:18;;;;;;;9.80;5.57;;;;;;;18.41;71.70;100550.50;5056409;28;20025;-85
2022/07/23 07:51:44;;;;;;;11.05;5.80;;;;;;;18.63;71.82;100551.53;5056221;28;20021;-86
2022/07/23 07:54:09;;;;;;;11.88;6.35;;;;;;;18.80;71.17;100547.38;5056564;28;20565;-86
2022/07/23 07:56:35;;;;;;;10.75;6.75;;;;;;;18.63;71.92;100557.06;5056558;28;20129;-87
2022/07/23 07:59:01;;;;;;;9.98;6.50;;;;;;;18.54;71.65;100554.59;5056824;28;20122;-87
2022/07/23 08:01:26;;;;;;;10.98;5.43;;;;;;;18.77;72.04;100556.41;5055251;28;20388;-86
2022/07/23 08:03:51;;;;;;;9.15;5.00;;;;;;;18.86;70.29;100563.22;5055543;28;20253;-85
2022/07/23 08:06:19;;;;;;;9.88;5.60;;;;;;;18.94;70.08;100567.63;5054558;28;20049;-86
2022/07/23 08:08:44;;;;;;;10.18;5.53;;;;;;;18.76;70.03;100574.16;5055388;28;20037;-85
2022/07/23 08:11:10;;;;;;;9.80;5.25;;;;;;;18.93;70.36;100573.53;5055766;28;20043;-85
2022/07/23 08:13:35;;;;;;;9.40;5.40;;;;;;;19.00;70.36;100575.56;5056422;28;20025;-86
2022/07/23 08:16:01;;;;;;;11.18;4.78;;;;;;;19.28;69.05;100573.03;5055995;28;20061;-87
2022/07/23 08:18:26;;;;;;;9.13;4.85;;;;;;;19.29;68.14;100574.63;5056327;28;20025;-87
2022/07/23 08:20:51;;;;;;;8.73;4.50;;;;;;;19.31;66.83;100575.03;5055464;28;20037;-84
2022/07/23 08:23:19;;;;;;;7.10;4.10;;;;;;;19.35;67.15;100578.63;5055321;28;20484;-86
2022/07/23 08:25:45;;;;;;;6.53;3.30;;;;;;;19.53;66.44;100576.78;5056301;28;20033;-83
2022/07/23 08:28:12;;;;;;;6.05;3.40;;;;;;;19.37;66.84;100581.00;5055796;28;20040;-85
2022/07/23 08:30:39;;;;;;;6.40;3.45;;;;;;;19.50;65.61;100585.84;5055689;28;20435;-83
2022/07/23 08:33:11;;;;;;;6.65;3.22;;;;;;;19.50;64.86;100580.31;5055777;28;20032;-85
2022/07/23 08:35:47;;;;;;;6.03;3.78;;;;;;;19.43;64.61;100582.22;5056037;28;20423;-84
2022/07/23 08:38:15;;;;;;;7.03;3.80;;;;;;;19.35;65.87;100578.63;5055582;28;20056;-86
2022/07/23 08:40:44;;;;;;;6.93;3.70;;;;;;;19.28;65.20;100577.75;5054504;28;20033;-86
2022/07/23 08:43:12;;;;;;;7.13;3.13;;;;;;;19.30;65.18;100587.25;5055469;28;20033;-85
2022/07/23 08:45:41;;;;;;;6.30;2.92;;;;;;;19.43;64.69;100585.78;5056284;28;20048;-85
2022/07/23 08:48:11;;;;;;;6.22;3.00;;;;;;;19.56;63.63;100582.75;5054937;28;20056;-85
2022/07/23 08:50:37;;;;;;;4.57;2.53;;;;;;;19.74;63.13;100589.19;5055835;28;20036;-88
2022/07/23 08:53:05;;;;;;;5.65;3.00;;;;;;;19.83;62.27;100586.88;5054960;28;20488;-85
2022/07/23 08:55:31;;;;;;;5.40;2.25;;;;;;;20.10;62.66;100593.72;5054904;28;20021;-83
2022/07/23 08:57:56;;;;;;;4.50;2.25;;;;;;;20.11;61.58;100595.31;5057023;28;20027;-84
2022/07/23 09:00:22;;;;;;;4.90;2.80;;;;;;;20.12;62.37;100587.78;5059769;28;20083;-83
2022/07/23 09:02:49;;;;;;;5.47;2.78;;;;;;;19.95;62.49;100589.28;5055944;28;20037;-83
2022/07/23 09:05:15;;;;;;;4.07;1.63;;;;;;;20.23;62.08;100588.66;5058871;28;20053;-86
2022/07/23 09:08:03;;;;;;;5.43;2.72;;;;;;;19.96;61.42;100590.09;5057993;28;20031;-84
2022/07/23 09:10:29;;;;;;;4.35;1.98;;;;;;;19.64;60.71;100592.66;5056572;28;20465;-84
2022/07/23 09:12:55;;;;;;;5.72;2.20;;;;;;;19.74;61.83;100597.47;5054803;28;20035;-84
2022/07/23 09:15:20;;;;;;;5.15;2.10;;;;;;;19.91;61.12;100588.50;5054784;28;20032;-82
2022/07/23 09:17:46;;;;;;;3.22;1.83;;;;;;;20.14;59.99;100600.03;5053500;28;20029;-82
2022/07/23 09:20:14;;;;;;;4.32;1.67;;;;;;;20.35;59.48;100595.81;5054950;28;20456;-84
2022/07/23 09:22:47;;;;;;;3.88;1.95;;;;;;;20.72;57.41;100592.78;5053406;28;20032;-82
2022/07/23 09:25:13;;;;;;;5.15;1.98;;;;;;;20.60;56.68;100593.94;5054518;28;20487;-84
2022/07/23 09:27:59;;;;;;;4.78;2.20;;;;;;;20.80;57.62;100594.38;5056355;28;20107;-83
2022/07/23 09:30:29;;;;;;;5.72;2.35;;;;;;;20.91;56.33;100597.16;5057542;28;20137;-84
2022/07/23 09:33:09;;;;;;;3.65;1.55;;;;;;;20.72;57.02;100596.34;5056381;28;20056;-83
2022/07/23 09:35:46;;;;;;;5.93;2.13;;;;;;;20.68;57.09;100597.53;5054105;28;20033;-82
2022/07/23 09:38:13;;;;;;;3.67;1.70;;;;;;;20.99;56.37;100590.44;5054054;28;20041;-83
2022/07/23 09:40:38;;;;;;;4.93;1.70;;;;;;;20.95;55.80;100592.44;5054493;28;20030;-85
2022/07/23 09:43:04;;;;;;;5.35;1.77;;;;;;;21.01;55.70;100594.44;5054600;28;20044;-79
2022/07/23 09:45:29;;;;;;;3.80;1.40;;;;;;;21.16;55.25;100586.91;5053689;28;20025;-81
2022/07/23 09:48:27;;;;;;;4.57;1.40;;;;;;;21.17;56.32;100591.28;5054012;28;20029;-79
2022/07/23 09:51:02;;;;;;;4.30;1.70;;;;;;;21.35;55.20;100594.06;5030269;28;20060;-83
2022/07/23 09:53:29;;;;;;;4.70;1.63;;;;;;;21.08;55.22;100590.06;5052189;28;20029;-79
2022/07/23 09:56:00;;;;;;;3.40;1.30;;;;;;;21.06;54.92;100590.47;5053679;28;20531;-80
2022/07/23 09:58:28;;;;;;;3.60;1.45;;;;;;;21.10;54.61;100591.25;5053311;28;20381;-81
2022/07/23 10:00:55;;;;;;;3.35;1.40;;;;;;;21.07;55.49;100592.06;5052284;28;20035;-80
2022/07/23 10:03:23;;;;;;;3.50;1.40;;;;;;;21.41;55.64;100594.47;5053287;28;20029;-78
2022/07/23 10:05:49;;;;;;;4.35;1.80;;;;;;;21.47;55.22;100595.63;5051459;28;20060;-80
2022/07/23 10:08:18;;;;;;;4.30;2.00;;;;;;;21.28;55.61;100597.63;5052826;28;20438;-79
2022/07/23 10:10:47;;;;;;;5.30;1.63;;;;;;;21.10;55.65;100596.00;5053529;28;20072;-80
2022/07/23 10:15:59;;;;;;;3.47;1.80;;;;;;;21.03;55.07;100597.59;5053377;28;20074;-82
2022/07/23 10:18:25;;;;;;;3.65;1.58;;;;;;;20.96;55.63;100591.25;5053720;28;20063;-81
2022/07/23 10:20:50;;;;;;;4.53;1.77;;;;;;;21.25;55.23;100592.88;5053015;28;20024;-81
2022/07/23 10:23:26;;;;;;;2.85;1.30;;;;;;;21.42;54.57;100590.50;5052919;28;20067;-80
2022/07/23 10:26:05;;;;;;;2.88;1.20;;;;;;;21.47;54.28;100590.09;5053003;28;20403;-81
2022/07/23 10:28:54;;;;;;;3.50;1.45;;;;;;;21.48;54.31;100588.91;5053334;28;20041;-78
2022/07/23 10:31:41;;;;;;;3.53;1.60;;;;;;;21.64;53.58;100592.03;5045426;28;20492;-76
2022/07/23 10:34:19;;;;;;;8.40;2.17;;;;;;;21.93;52.69;100587.25;5052970;28;20100;-80
2022/07/23 10:36:48;;;;;;;3.90;1.73;;;;;;;21.79;53.73;100588.06;5052735;28;20036;-82
2022/07/23 10:39:26;;;;;;;3.38;1.50;;;;;;;21.24;54.37;100587.72;5053119;28;20075;-75
2022/07/23 10:41:51;;;;;;;3.25;1.23;;;;;;;21.63;53.66;100588.50;5052982;28;20032;-74
2022/07/23 10:44:20;;;;;;;3.35;1.63;;;;;;;21.68;54.20;100587.31;5052645;28;20033;-73
2022/07/23 10:49:42;;;;;;;4.45;1.95;;;;;;;21.67;54.48;100580.19;5052818;28;20046;-77
2022/07/23 10:52:13;;;;;;;5.28;1.60;;;;;;;21.70;53.42;100579.38;5053118;28;20036;-74
2022/07/23 10:54:49;;;;;;;2.72;1.20;;;;;;;22.22;52.31;100579.66;5052498;28;20029;-74
2022/07/23 10:57:15;;;;;;;3.83;1.38;;;;;;;22.34;52.28;100579.22;5052590;28;20035;-74
2022/07/23 10:59:59;;;;;;;3.30;1.42;;;;;;;22.17;51.68;100580.88;5051554;28;20468;-74
2022/07/23 11:02:25;;;;;;;3.45;1.63;;;;;;;22.12;51.28;100578.50;5052995;28;20025;-75
2022/07/23 11:04:53;;;;;;;4.32;1.75;;;;;;;22.61;50.26;100579.44;5052376;28;20049;-74
2022/07/23 11:07:18;;;;;;;2.45;1.10;;;;;;;22.57;51.30;100584.25;5052398;28;20083;-74
2022/07/23 11:09:46;;;;;;;2.47;1.25;;;;;;;23.04;48.18;100571.66;5052513;28;20029;-74
2022/07/23 11:12:20;;;;;;;3.38;1.45;;;;;;;23.08;48.44;100575.19;5055746;28;20120;-74
2022/07/23 11:15:07;;;;;;;3.42;1.33;;;;;;;22.94;49.88;100586.41;5056485;28;20040;-74
2022/07/23 11:17:38;;;;;;;2.67;1.20;;;;;;;22.56;49.33;100574.34;5056209;28;20041;-75
2022/07/23 11:20:09;;;;;;;2.83;1.20;;;;;;;22.43;49.78;100571.22;5056499;28;20032;-74
2022/07/23 11:22:44;;;;;;;3.42;1.30;;;;;;;22.84;49.09;100573.38;5056227;28;20055;-74
2022/07/23 11:25:11;;;;;;;4.88;1.50;;;;;;;22.75;48.51;100575.81;5056221;28;20162;-73
2022/07/23 11:27:44;;;;;;;2.90;1.17;;;;;;;22.41;49.25;100575.59;5055976;28;20048;-74
2022/07/23 11:30:30;;;;;;;3.10;1.13;;;;;;;22.61;48.91;100581.44;5055977;28;20170;-73
2022/07/23 11:33:07;;;;;;;4.03;1.30;;;;;;;22.88;49.54;100579.72;5056072;28;20044;-74
2022/07/23 11:35:34;;;;;;;2.80;1.20;;;;;;;22.75;49.02;100570.25;5055944;28;20044;-74
2022/07/23 11:38:19;;;;;;;2.58;1.30;;;;;;;23.07;48.40;100576.41;5055834;28;20043;-74
2022/07/23 11:40:47;;;;;;;4.30;1.15;;;;;;;23.36;47.12;100574.19;5055967;28;20025;-74
2022/07/23 11:43:13;;;;;;;4.63;1.27;;;;;;;23.13;46.67;100571.19;5055945;28;20036;-74
2022/07/23 11:45:44;;;;;;;3.70;1.20;;;;;;;22.89;47.55;100572.19;5055677;28;20114;-74